Time;durP1;ratioP1;P1;durP2;ratioP2;P2;SDS_P1;SDS_P2;PMS_P1;PMS_P2;Temp;Humidity;BMP_temperature;BMP_pressure;BME280_temperature;BME280_humidity;BME280_pressure;Samples;Min_cycle;Max_cycle;Signal;HPM_P1;HPM_P2
2023/06/02 00:02:22;;;;;;;5.05;3.83;;;;;;;22.42;52.55;96287.41;5041449;28;20021;-33
2023/06/02 00:04:49;;;;;;;6.20;4.05;;;;;;;22.37;53.04;96288.19;5033950;28;20075;-33
2023/06/02 00:07:15;;;;;;;6.00;3.53;;;;;;;22.38;52.84;96292.44;5034300;28;20022;-33
2023/06/02 00:09:42;;;;;;;10.05;3.83;;;;;;;22.43;52.71;96283.38;5034211;28;20080;-33
2023/06/02 00:12:10;;;;;;;5.88;3.70;;;;;;;22.32;52.96;96283.44;5034320;28;20048;-33
2023/06/02 00:14:42;;;;;;;6.45;3.60;;;;;;;22.43;53.18;96288.91;5034005;28;20380;-33
2023/06/02 00:17:10;;;;;;;6.05;3.90;;;;;;;22.53;52.72;96287.34;5034098;28;20028;-33
2023/06/02 00:19:42;;;;;;;5.35;3.67;;;;;;;22.50;52.52;96282.09;5043658;28;20542;-34
2023/06/02 00:22:13;;;;;;;5.63;3.67;;;;;;;22.39;53.47;96282.88;5037313;28;20060;-33
2023/06/02 00:24:39;;;;;;;5.40;3.42;;;;;;;22.36;53.57;96283.16;5033698;28;20104;-33
2023/06/02 00:27:04;;;;;;;5.18;3.55;;;;;;;22.47;53.27;96286.63;5034327;28;20041;-33
2023/06/02 00:29:30;;;;;;;4.82;3.13;;;;;;;22.37;53.40;96279.91;5033825;28;20053;-33
2023/06/02 00:31:55;;;;;;;4.20;3.45;;;;;;;22.41;53.12;96282.38;5041207;28;20021;-33
2023/06/02 00:34:21;;;;;;;4.57;3.47;;;;;;;22.37;53.12;96276.38;5035677;28;20050;-33
2023/06/02 00:36:46;;;;;;;4.28;3.30;;;;;;;22.28;53.76;96280.16;5041291;28;20021;-33
2023/06/02 00:39:12;;;;;;;4.50;3.00;;;;;;;22.42;53.12;96276.34;5040683;28;20029;-33
2023/06/02 00:41:37;;;;;;;7.05;3.55;;;;;;;22.28;53.48;96271.13;5034105;28;20033;-33
2023/06/02 00:44:02;;;;;;;6.47;3.63;;;;;;;22.34;53.11;96269.84;5036538;28;20025;-33
2023/06/02 00:46:28;;;;;;;5.30;3.47;;;;;;;22.32;53.15;96277.16;5037683;28;20029;-33
2023/06/02 00:48:53;;;;;;;5.85;3.47;;;;;;;22.41;53.39;96268.56;5040946;28;20032;-33
2023/06/02 00:51:19;;;;;;;5.13;3.78;;;;;;;22.42;53.53;96265.28;5041163;28;20024;-33
2023/06/02 00:53:46;;;;;;;6.15;3.90;;;;;;;22.33;53.34;96276.66;5033131;28;20045;-33
2023/06/02 00:56:15;;;;;;;5.38;3.97;;;;;;;22.43;53.52;96266.06;5035505;28;20362;-33
2023/06/02 00:58:44;;;;;;;8.00;3.50;;;;;;;22.52;53.07;96268.50;5037475;28;20100;-33
2023/06/02 01:01:12;;;;;;;5.45;3.50;;;;;;;22.40;53.62;96267.06;5040675;28;20040;-33
2023/06/02 01:03:45;;;;;;;5.50;3.72;;;;;;;22.56;52.88;96275.28;5038567;28;20017;-33
2023/06/02 01:06:11;;;;;;;;;;;;;;;22.49;52.84;96267.53;5034813;28;20104;-33
2023/06/02 01:08:39;;;;;;;7.78;4.43;;;;;;;22.44;52.87;96265.53;5033598;28;20051;-33
2023/06/02 01:11:06;;;;;;;5.30;3.60;;;;;;;22.44;53.17;96260.00;5033097;28;20101;-33
2023/06/02 01:13:32;;;;;;;4.05;3.30;;;;;;;22.49;52.67;96264.78;5018333;28;20032;-33
2023/06/02 01:15:57;;;;;;;5.13;3.42;;;;;;;22.25;53.67;96267.38;5044655;28;20025;-33
2023/06/02 01:18:25;;;;;;;3.50;2.97;;;;;;;22.44;52.95;96276.59;5040829;28;20477;-33
2023/06/02 01:20:57;;;;;;;4.55;3.38;;;;;;;22.40;52.98;96267.81;5032982;28;20075;-33
2023/06/02 01:23:29;;;;;;;4.18;3.08;;;;;;;22.30;53.50;96269.38;5033514;28;20374;-33
2023/06/02 01:25:55;;;;;;;4.82;3.30;;;;;;;22.38;53.07;96270.31;5033431;28;20440;-33
2023/06/02 01:28:21;;;;;;;4.13;2.78;;;;;;;22.52;52.20;96269.25;5032935;28;20025;-33
2023/06/02 01:30:49;;;;;;;4.13;2.67;;;;;;;22.37;52.62;96263.31;5033771;28;20068;-34
2023/06/02 01:33:21;;;;;;;4.10;2.83;;;;;;;22.53;52.21;96264.50;5039552;28;20104;-33
2023/06/02 01:35:50;;;;;;;3.80;2.72;;;;;;;22.37;52.36;96268.84;5035661;28;20553;-33
2023/06/02 01:38:18;;;;;;;3.67;2.65;;;;;;;22.33;52.45;96271.13;5042978;28;20540;-33
2023/06/02 01:40:44;;;;;;;5.13;2.75;;;;;;;22.40;52.21;96267.81;5034177;28;20022;-33
2023/06/02 01:43:11;;;;;;;4.22;2.80;;;;;;;22.51;51.52;96270.53;5033337;28;20473;-34
2023/06/02 01:45:38;;;;;;;3.90;2.70;;;;;;;22.34;52.15;96274.63;5033001;28;20026;-33
2023/06/02 01:48:05;;;;;;;4.95;3.05;;;;;;;22.31;52.02;96273.63;5043498;28;20030;-33
2023/06/02 01:50:31;;;;;;;4.15;2.97;;;;;;;22.02;52.25;96282.50;5044154;28;20028;-33
2023/06/02 01:52:57;;;;;;;4.68;2.85;;;;;;;22.30;51.85;96269.38;5044146;28;20025;-33
2023/06/02 01:55:23;;;;;;;4.45;2.92;;;;;;;22.40;51.51;96267.06;5036334;28;20038;-33
2023/06/02 01:57:49;;;;;;;3.55;2.70;;;;;;;22.23;52.41;96275.44;5035613;28;20029;-33
2023/06/02 02:00:15;;;;;;;4.18;2.67;;;;;;;22.28;52.41;96269.13;5050264;28;20032;-33
2023/06/02 02:02:41;;;;;;;5.72;2.58;;;;;;;22.34;52.38;96275.38;5036484;28;20175;-33
2023/06/02 02:05:06;;;;;;;4.57;3.00;;;;;;;22.31;52.41;96264.59;5037243;28;20112;-33
2023/06/02 02:07:34;;;;;;;5.18;2.72;;;;;;;22.26;51.86;96273.63;5042738;28;20025;-33
2023/06/02 02:10:00;;;;;;;5.38;2.70;;;;;;;22.13;52.40;96274.22;5042939;28;20585;-33
2023/06/02 02:12:25;;;;;;;6.72;2.40;;;;;;;22.18;52.10;96270.66;5036553;28;20361;-33
2023/06/02 02:14:53;;;;;;;4.15;3.10;;;;;;;22.19;51.76;96269.41;5041814;28;20130;-33
2023/06/02 02:17:19;;;;;;;4.75;2.90;;;;;;;22.01;52.66;96269.94;5037273;28;20021;-33
2023/06/02 02:19:50;;;;;;;3.70;2.78;;;;;;;22.00;53.01;96268.47;5039752;28;20013;-33
2023/06/02 02:22:16;;;;;;;5.53;2.70;;;;;;;22.06;52.65;96261.66;5045532;28;20029;-33
2023/06/02 02:24:41;;;;;;;3.63;2.75;;;;;;;22.30;52.10;96266.59;5038899;28;20013;-33
2023/06/02 02:27:08;;;;;;;3.42;2.95;;;;;;;22.14;52.78;96279.19;5040342;28;20468;-33
2023/06/02 02:29:35;;;;;;;6.05;2.83;;;;;;;21.96;52.88;96273.47;5034492;28;20036;-33
2023/06/02 02:32:00;;;;;;;5.25;2.50;;;;;;;22.04;52.12;96268.94;5032270;28;20091;-33
2023/06/02 02:34:26;;;;;;;3.72;2.83;;;;;;;22.15;51.76;96268.91;5035761;28;20104;-34
2023/06/02 02:36:51;;;;;;;4.90;2.78;;;;;;;22.12;52.02;96270.69;5043116;28;20465;-33
2023/06/02 02:39:17;;;;;;;6.53;2.60;;;;;;;21.95;52.26;96260.91;5036156;28;20021;-33
2023/06/02 02:41:42;;;;;;;5.38;2.90;;;;;;;22.20;51.71;96265.38;5043131;28;20042;-33
2023/06/02 02:44:08;;;;;;;4.28;2.85;;;;;;;22.19;52.35;96258.34;5038994;28;20035;-34
2023/06/02 02:46:33;;;;;;;4.13;3.15;;;;;;;22.01;52.64;96254.13;5038780;28;20029;-33
2023/06/02 02:48:59;;;;;;;8.10;3.15;;;;;;;21.95;52.78;96260.91;5035800;28;20029;-33
2023/06/02 02:51:24;;;;;;;5.70;2.97;;;;;;;22.14;52.54;96259.13;5040662;28;20027;-33
2023/06/02 02:53:49;;;;;;;4.80;3.42;;;;;;;21.95;52.66;96263.69;5037499;28;20393;-33
2023/06/02 02:56:15;;;;;;;4.32;2.97;;;;;;;22.11;52.72;96263.66;5042763;28;20461;-33
2023/06/02 02:58:40;;;;;;;3.20;2.60;;;;;;;22.00;52.74;96265.72;5041190;28;20029;-33
2023/06/02 03:01:08;;;;;;;6.22;2.85;;;;;;;22.10;52.05;96261.41;5034548;28;20048;-33
2023/06/02 03:03:33;;;;;;;4.20;2.85;;;;;;;22.23;51.96;96260.88;5035325;28;20022;-33
2023/06/02 03:06:01;;;;;;;5.25;2.85;;;;;;;22.24;52.19;96257.59;5035451;28;20424;-33
2023/06/02 03:08:27;;;;;;;5.25;3.10;;;;;;;22.21;52.02;96259.34;5035266;28;20461;-34
2023/06/02 03:10:53;;;;;;;3.92;2.80;;;;;;;22.17;51.97;96260.88;5041357;28;20036;-33
2023/06/02 03:13:18;;;;;;;5.53;2.88;;;;;;;22.10;52.21;96262.16;5036077;28;20032;-33
2023/06/02 03:15:44;;;;;;;4.40;2.80;;;;;;;22.19;51.97;96258.34;5042481;28;20013;-33
2023/06/02 03:18:11;;;;;;;4.18;2.88;;;;;;;22.07;52.20;96256.88;5035026;28;20034;-33
2023/06/02 03:20:36;;;;;;;4.20;3.00;;;;;;;22.04;52.24;96261.41;5044976;28;20040;-33
2023/06/02 03:23:02;;;;;;;3.83;2.78;;;;;;;22.01;52.63;96256.13;5039151;28;20436;-33
2023/06/02 03:25:27;;;;;;;4.35;2.63;;;;;;;22.05;52.28;96253.88;5042159;28;20030;-33
2023/06/02 03:27:53;;;;;;;3.58;2.42;;;;;;;22.17;52.26;96258.84;5041495;28;20105;-33
2023/06/02 03:30:20;;;;;;;5.20;3.00;;;;;;;22.04;52.14;96258.66;5034925;28;20030;-34
2023/06/02 03:32:46;;;;;;;4.32;2.63;;;;;;;22.08;52.00;96258.41;5035345;28;20476;-33
2023/06/02 03:35:11;;;;;;;6.22;3.00;;;;;;;22.18;52.20;96262.38;5034749;28;20072;-33
2023/06/02 03:37:37;;;;;;;4.30;2.80;;;;;;;22.17;52.05;96252.59;5034894;28;20025;-33
2023/06/02 03:40:04;;;;;;;4.25;3.00;;;;;;;22.11;52.06;96251.88;5044908;28;20103;-34
2023/06/02 03:42:30;;;;;;;5.53;3.05;;;;;;;22.23;52.06;96256.09;5037735;28;20024;-34
2023/06/02 03:44:55;;;;;;;4.13;2.78;;;;;;;22.15;52.11;96261.38;5041892;28;20020;-33
2023/06/02 03:47:21;;;;;;;3.83;2.85;;;;;;;22.18;51.73;96265.88;5034339;28;20057;-33
2023/06/02 03:49:46;;;;;;;3.90;3.13;;;;;;;22.16;52.02;96265.63;5034774;28;20034;-33
2023/06/02 03:52:11;;;;;;;3.38;2.90;;;;;;;22.13;52.25;96266.66;5034573;28;20163;-33
2023/06/02 03:54:37;;;;;;;3.22;2.58;;;;;;;22.15;51.99;96266.16;5041535;28;20042;-33
2023/06/02 03:57:02;;;;;;;4.75;2.85;;;;;;;22.03;52.06;96264.69;5034197;28;20496;-33
2023/06/02 03:59:28;;;;;;;3.38;2.60;;;;;;;22.09;52.12;96263.41;5039034;28;20025;-33
2023/06/02 04:01:53;;;;;;;4.72;3.15;;;;;;;22.02;52.39;96265.94;5036665;28;20377;-34
2023/06/02 04:04:19;;;;;;;4.57;3.20;;;;;;;22.20;51.61;96268.16;5034510;28;20104;-34
2023/06/02 04:06:44;;;;;;;3.88;2.83;;;;;;;22.26;51.63;96276.41;5034082;28;20051;-33
2023/06/02 04:09:12;;;;;;;6.47;3.20;;;;;;;22.11;52.11;96276.72;5033926;28;20171;-33
2023/06/02 04:11:38;;;;;;;4.22;2.70;;;;;;;22.16;51.95;96276.69;5034058;28;20477;-33
2023/06/02 04:14:04;;;;;;;4.15;3.00;;;;;;;22.10;52.41;96283.50;5040728;28;20032;-34
2023/06/02 04:16:30;;;;;;;3.75;2.70;;;;;;;22.18;52.27;96270.66;5047657;28;20049;-33
2023/06/02 04:18:55;;;;;;;4.80;2.85;;;;;;;22.10;52.61;96275.22;5034314;28;20030;-33
2023/06/02 04:21:20;;;;;;;4.22;3.08;;;;;;;22.14;52.25;96272.94;5040868;28;20040;-33
2023/06/02 04:23:46;;;;;;;5.35;2.72;;;;;;;22.06;52.64;96274.72;5033822;28;20021;-34
2023/06/02 04:26:11;;;;;;;4.60;2.95;;;;;;;22.05;52.80;96276.72;5033636;28;20017;-33
2023/06/02 04:28:37;;;;;;;3.55;2.75;;;;;;;22.03;52.86;96268.19;5036030;28;20044;-33
2023/06/02 04:31:05;;;;;;;4.57;3.15;;;;;;;22.04;52.54;96274.47;5039222;28;20017;-33
2023/06/02 04:33:31;;;;;;;3.22;2.70;;;;;;;21.94;53.04;96278.72;5040496;28;20044;-34
2023/06/02 04:35:57;;;;;;;5.88;3.78;;;;;;;22.09;52.52;96284.75;5031650;28;20048;-33
2023/06/02 04:38:23;;;;;;;5.45;3.40;;;;;;;22.01;52.57;96284.50;5040729;28;20426;-33
2023/06/02 04:40:48;;;;;;;7.50;3.50;;;;;;;22.03;52.56;96284.75;5034278;28;20519;-33
2023/06/02 04:43:14;;;;;;;4.60;3.05;;;;;;;22.01;52.52;96281.00;5033824;28;20531;-33
2023/06/02 04:45:43;;;;;;;6.07;3.00;;;;;;;22.21;52.48;96280.69;5040668;28;20028;-33
2023/06/02 04:48:10;;;;;;;4.93;2.80;;;;;;;22.20;52.32;96281.97;5028834;28;20023;-34
2023/06/02 04:50:36;;;;;;;5.85;2.90;;;;;;;22.22;52.44;96284.97;5036999;28;20039;-33
2023/06/02 04:53:02;;;;;;;3.45;3.08;;;;;;;22.21;52.76;96286.22;5033867;28;20033;-33
2023/06/02 04:55:27;;;;;;;4.63;2.63;;;;;;;22.07;53.02;96274.22;5033392;28;20129;-33
2023/06/02 04:57:53;;;;;;;4.10;2.60;;;;;;;22.20;52.51;96276.44;5040970;28;20025;-33
2023/06/02 05:00:18;;;;;;;3.60;3.17;;;;;;;22.34;52.33;96282.91;5033234;28;20105;-33
2023/06/02 05:02:45;;;;;;;3.55;2.63;;;;;;;22.24;52.79;96279.69;5040532;28;20108;-33
2023/06/02 05:05:11;;;;;;;3.65;2.50;;;;;;;22.13;52.69;96279.72;5040700;28;20021;-34
2023/06/02 05:07:37;;;;;;;4.65;3.17;;;;;;;22.16;53.28;96281.47;5033555;28;20350;-33
2023/06/02 05:10:02;;;;;;;3.30;2.40;;;;;;;22.29;52.77;96278.91;5033422;28;20420;-34
2023/06/02 05:12:28;;;;;;;4.45;2.08;;;;;;;22.32;52.57;96286.19;5033717;28;20064;-34
2023/06/02 05:14:53;;;;;;;3.63;2.92;;;;;;;22.37;52.30;96277.13;5039888;28;20027;-33
2023/06/02 05:17:23;;;;;;;4.55;2.80;;;;;;;22.38;52.33;96280.63;5035638;28;20440;-33
2023/06/02 05:19:50;;;;;;;3.25;2.63;;;;;;;22.24;52.88;96276.19;5043094;28;20024;-33
2023/06/02 05:22:16;;;;;;;5.50;2.67;;;;;;;22.13;53.25;96277.69;5045408;28;20026;-34
2023/06/02 05:24:42;;;;;;;4.18;3.00;;;;;;;22.19;53.10;96277.69;5029790;28;20029;-34
2023/06/02 05:27:07;;;;;;;4.28;2.65;;;;;;;22.16;53.11;96273.94;5037474;28;20018;-33
2023/06/02 05:29:33;;;;;;;4.03;2.58;;;;;;;22.34;53.01;96280.91;5037463;28;20362;-33
2023/06/02 05:32:11;;;;;;;4.20;3.00;;;;;;;22.29;53.31;96273.38;5037346;28;20032;-33
2023/06/02 05:34:37;;;;;;;3.70;2.78;;;;;;;22.22;53.73;96273.91;5044180;28;20100;-33
2023/06/02 05:37:02;;;;;;;4.07;3.10;;;;;;;22.14;53.84;96273.69;5040874;28;20100;-33
2023/06/02 05:39:28;;;;;;;4.22;2.85;;;;;;;22.21;53.86;96272.41;5046968;28;20133;-33
2023/06/02 05:41:53;;;;;;;3.40;2.80;;;;;;;22.19;53.96;96278.44;5037386;28;20021;-33
2023/06/02 05:44:19;;;;;;;6.22;3.08;;;;;;;22.32;53.57;96264.09;5036936;28;20533;-33
2023/06/02 05:46:44;;;;;;;3.75;2.85;;;;;;;22.49;53.37;96273.06;5036924;28;20381;-33
2023/06/02 05:49:09;;;;;;;3.88;2.83;;;;;;;22.23;54.19;96274.69;5036776;28;20343;-33
2023/06/02 05:51:35;;;;;;;3.95;2.80;;;;;;;22.24;54.52;96279.69;5044083;28;20021;-34
2023/06/02 05:54:01;;;;;;;4.93;3.30;;;;;;;22.26;54.47;96288.19;5043975;28;20425;-33
2023/06/02 05:56:26;;;;;;;3.97;2.95;;;;;;;22.21;55.26;96281.47;5041411;28;20024;-33
2023/06/02 05:58:51;;;;;;;4.00;2.55;;;;;;;22.35;54.93;96293.47;5038714;28;20477;-33
2023/06/02 06:01:17;;;;;;;3.83;2.70;;;;;;;22.34;54.79;96285.69;5036667;28;20458;-33
2023/06/02 06:03:42;;;;;;;4.50;2.90;;;;;;;22.19;55.56;96283.22;5036510;28;20049;-33
2023/06/02 06:06:08;;;;;;;5.53;3.05;;;;;;;22.47;55.02;96281.09;5036485;28;20510;-33
2023/06/02 06:08:34;;;;;;;6.20;3.00;;;;;;;22.46;55.07;96282.38;5036311;28;20022;-33
2023/06/02 06:11:00;;;;;;;7.93;3.47;;;;;;;22.30;55.38;96280.41;5043376;28;20017;-33
2023/06/02 06:13:25;;;;;;;5.40;3.45;;;;;;;22.39;55.52;96287.66;5036839;28;20020;-34
2023/06/02 06:15:51;;;;;;;6.82;3.45;;;;;;;22.38;55.15;96280.63;5041510;28;20523;-33
2023/06/02 06:18:16;;;;;;;4.80;3.50;;;;;;;22.44;55.46;96281.38;5036222;28;20049;-33
2023/06/02 06:20:42;;;;;;;4.75;3.20;;;;;;;22.42;56.05;96284.63;5042902;28;20017;-33
2023/06/02 06:23:08;;;;;;;4.97;3.45;;;;;;;22.39;56.19;96287.66;5042722;28;20384;-33
2023/06/02 06:25:33;;;;;;;4.88;3.58;;;;;;;22.52;55.92;96279.56;5037958;28;20116;-34
2023/06/02 06:27:59;;;;;;;5.10;3.28;;;;;;;22.46;55.86;96285.13;5041798;28;20017;-34
2023/06/02 06:30:24;;;;;;;6.13;3.40;;;;;;;22.44;56.05;96279.34;5031590;28;20022;-33
2023/06/02 06:32:50;;;;;;;5.60;3.30;;;;;;;22.46;56.28;96282.38;5035806;28;20017;-34
2023/06/02 06:35:15;;;;;;;7.55;3.28;;;;;;;22.60;55.79;96288.84;5035621;28;20029;-33
2023/06/02 06:37:41;;;;;;;5.68;3.25;;;;;;;22.66;55.61;96289.56;5044346;28;20033;-33
2023/06/02 06:40:07;;;;;;;5.95;3.30;;;;;;;22.48;56.79;96277.09;5049350;28;20092;-33
2023/06/02 06:42:32;;;;;;;5.85;3.25;;;;;;;22.55;56.36;96284.84;5035352;28;20025;-34
2023/06/02 06:44:57;;;;;;;5.20;3.90;;;;;;;22.21;58.26;96284.22;5036368;28;20028;-33
2023/06/02 06:47:23;;;;;;;5.10;3.10;;;;;;;22.47;57.47;96278.34;5034395;28;20476;-33
2023/06/02 06:49:50;;;;;;;5.70;3.75;;;;;;;22.50;57.96;96282.84;5035840;28;20028;-34
2023/06/02 06:52:15;;;;;;;5.53;3.50;;;;;;;22.53;56.96;96284.59;5039204;28;20064;-34
2023/06/02 06:54:40;;;;;;;5.60;3.70;;;;;;;22.68;56.89;96286.28;5038540;28;20436;-33
2023/06/02 06:57:06;;;;;;;6.15;3.40;;;;;;;22.56;57.06;96283.56;5050099;28;20104;-33
2023/06/02 06:59:32;;;;;;;8.43;3.90;;;;;;;22.76;56.83;96293.56;5035510;28;20461;-33
2023/06/02 07:01:57;;;;;;;6.57;3.90;;;;;;;22.65;57.59;96288.06;5042143;28;20464;-33
2023/06/02 07:04:22;;;;;;;4.90;3.63;;;;;;;22.64;57.09;96294.84;5035286;28;20097;-33
2023/06/02 07:06:48;;;;;;;4.63;3.47;;;;;;;22.62;57.37;96296.63;5035406;28;20017;-33
2023/06/02 07:09:15;;;;;;;4.30;3.35;;;;;;;22.69;56.65;96296.09;5043092;28;20024;-34
2023/06/02 07:11:40;;;;;;;7.05;3.72;;;;;;;22.69;57.54;96301.63;5039669;28;20017;-33
2023/06/02 07:14:06;;;;;;;5.50;3.40;;;;;;;22.67;57.22;96301.38;5037607;28;20385;-33
2023/06/02 07:16:31;;;;;;;7.50;3.53;;;;;;;22.83;56.59;96289.50;5035627;28;20034;-33
2023/06/02 07:18:56;;;;;;;4.82;3.17;;;;;;;22.79;56.29;96292.53;5035145;28;20104;-33
2023/06/02 07:21:22;;;;;;;4.22;3.28;;;;;;;22.68;57.15;96294.56;5042147;28;20087;-35
2023/06/02 07:23:47;;;;;;;5.25;3.15;;;;;;;22.56;57.56;96291.13;5034958;28;20151;-33
2023/06/02 07:26:13;;;;;;;4.13;3.47;;;;;;;22.71;57.23;96286.03;5042196;28;20025;-33
2023/06/02 07:28:38;;;;;;;6.78;3.42;;;;;;;22.75;57.02;96297.53;5042229;28;20024;-33
2023/06/02 07:31:05;;;;;;;4.20;3.20;;;;;;;22.84;57.10;96288.25;5034814;28;20017;-33
2023/06/02 07:33:30;;;;;;;5.93;3.28;;;;;;;22.79;57.57;96289.78;5035245;28;20014;-33
2023/06/02 07:35:56;;;;;;;5.32;3.58;;;;;;;22.73;57.49;96291.03;5034456;28;20397;-34
2023/06/02 07:38:21;;;;;;;4.28;3.08;;;;;;;22.90;57.01;96283.44;5041623;28;20013;-34
2023/06/02 07:40:47;;;;;;;4.35;3.10;;;;;;;22.92;56.55;96287.19;5037033;28;20104;-33
2023/06/02 07:43:12;;;;;;;4.55;3.15;;;;;;;22.93;56.22;96287.94;5040653;28;20435;-33
2023/06/02 07:45:38;;;;;;;4.13;3.50;;;;;;;23.06;55.84;96290.88;5034154;28;20539;-33
2023/06/02 07:48:03;;;;;;;6.50;3.58;;;;;;;22.94;56.85;96286.69;5034659;28;20108;-33
2023/06/02 07:50:28;;;;;;;5.05;3.33;;;;;;;22.99;56.57;96288.66;5034337;28;20109;-33
2023/06/02 07:52:55;;;;;;;6.63;3.40;;;;;;;23.13;56.34;96282.00;5034792;28;20033;-33
2023/06/02 07:55:20;;;;;;;4.68;3.67;;;;;;;23.10;56.16;96283.06;5034197;28;20049;-33
2023/06/02 07:57:46;;;;;;;4.85;3.42;;;;;;;22.88;57.19;96291.47;5048757;28;20389;-34
2023/06/02 08:00:16;;;;;;;4.53;3.47;;;;;;;23.00;56.72;96281.09;5036641;28;20052;-33
2023/06/02 08:02:49;;;;;;;6.30;3.10;;;;;;;23.17;56.05;96282.50;5045168;28;20060;-33
2023/06/02 08:05:18;;;;;;;4.20;3.63;;;;;;;23.09;56.13;96280.81;5034443;28;20021;-33
2023/06/02 08:07:44;;;;;;;5.07;4.10;;;;;;;23.10;55.39;96280.28;5033859;28;20025;-33
2023/06/02 08:10:11;;;;;;;8.45;3.90;;;;;;;23.09;55.15;96284.31;5034536;28;20022;-33
2023/06/02 08:12:37;;;;;;;9.07;4.05;;;;;;;23.13;54.81;96282.00;5034182;28;20579;-34
2023/06/02 08:15:03;;;;;;;6.75;4.35;;;;;;;23.09;54.23;96278.78;5041218;28;20017;-33
2023/06/02 08:17:31;;;;;;;6.93;4.30;;;;;;;23.08;54.33;96271.75;5041777;28;20124;-33
2023/06/02 08:20:01;;;;;;;4.88;4.05;;;;;;;23.09;53.67;96276.03;5039593;28;20056;-34
2023/06/02 08:22:28;;;;;;;6.55;4.05;;;;;;;23.20;53.75;96275.94;5031740;28;20112;-33
2023/06/02 08:24:54;;;;;;;5.93;4.20;;;;;;;23.21;53.43;96277.44;5034764;28;20055;-33
2023/06/02 08:27:21;;;;;;;6.20;4.10;;;;;;;23.05;53.83;96278.31;5033690;28;20025;-33
2023/06/02 08:29:51;;;;;;;5.38;3.85;;;;;;;23.16;53.12;96275.47;5036972;28;20027;-33
2023/06/02 08:32:18;;;;;;;5.40;4.38;;;;;;;23.20;53.12;96275.94;5037505;28;20052;-33
2023/06/02 08:34:50;;;;;;;5.13;4.10;;;;;;;23.04;53.27;96287.13;5040930;28;20025;-33
2023/06/02 08:37:17;;;;;;;5.60;4.20;;;;;;;23.26;52.85;96284.94;5033758;28;20033;-34
2023/06/02 08:39:48;;;;;;;4.90;4.10;;;;;;;23.12;53.17;96288.09;5034213;28;20025;-33
2023/06/02 08:42:15;;;;;;;5.18;4.10;;;;;;;23.15;52.90;96289.81;5033673;28;20090;-33
2023/06/02 08:44:41;;;;;;;5.55;4.50;;;;;;;23.13;53.03;96293.09;5034012;28;20389;-34
2023/06/02 08:47:12;;;;;;;5.78;4.38;;;;;;;23.18;52.81;96278.47;5040513;28;20361;-33
2023/06/02 08:49:47;;;;;;;7.47;4.85;;;;;;;23.26;52.20;96290.47;5041237;28;20028;-34
2023/06/02 08:52:20;;;;;;;6.35;4.40;;;;;;;23.13;52.62;96284.03;5026789;28;20064;-33
2023/06/02 08:54:46;;;;;;;13.30;4.75;;;;;;;23.12;52.65;96285.31;5032952;28;20490;-33
2023/06/02 08:57:16;;;;;;;9.43;4.63;;;;;;;23.08;52.59;96280.06;5052083;28;20037;-33
2023/06/02 08:59:44;;;;;;;9.05;4.45;;;;;;;23.15;51.93;96279.50;5044092;28;20025;-33
2023/06/02 09:02:10;;;;;;;14.20;4.88;;;;;;;23.19;51.92;96282.75;5046884;28;20091;-33
2023/06/02 09:04:35;;;;;;;10.50;4.55;;;;;;;23.17;51.61;96282.50;5042524;28;20068;-33
2023/06/02 09:07:13;;;;;;;8.50;4.28;;;;;;;23.18;51.23;96294.31;5037824;28;20582;-34
2023/06/02 09:09:43;;;;;;;13.27;4.43;;;;;;;23.33;50.90;96280.88;5031540;28;20175;-33
2023/06/02 09:12:09;;;;;;;12.35;4.32;;;;;;;23.29;50.85;96283.91;5037608;28;20021;-33
2023/06/02 09:14:36;;;;;;;7.25;4.10;;;;;;;23.11;51.74;96284.56;5037740;28;20095;-33
2023/06/02 09:17:02;;;;;;;8.60;4.18;;;;;;;23.15;51.25;96285.03;5044305;28;20025;-34
2023/06/02 09:19:48;;;;;;;9.35;4.15;;;;;;;23.26;51.01;96284.19;5044982;28;20029;-33
2023/06/02 09:22:14;;;;;;;5.65;4.20;;;;;;;23.16;51.24;96285.78;5036828;28;20067;-33
2023/06/02 09:24:39;;;;;;;6.53;4.05;;;;;;;23.20;51.09;96289.03;5037509;28;20543;-33
2023/06/02 09:27:11;;;;;;;7.55;4.28;;;;;;;23.14;50.54;96289.06;5037276;28;20017;-33
2023/06/02 09:29:41;;;;;;;6.55;3.97;;;;;;;23.29;50.83;96289.47;5037675;28;20123;-33
2023/06/02 09:32:14;;;;;;;6.25;4.25;;;;;;;23.22;50.89;96286.50;5042446;28;20459;-33
2023/06/02 09:34:40;;;;;;;7.03;3.67;;;;;;;23.30;50.65;96292.97;5038912;28;20759;-35
2023/06/02 09:37:14;;;;;;;8.63;4.07;;;;;;;23.33;50.64;96286.41;5043210;28;20112;-33
2023/06/02 09:39:45;;;;;;;4.22;3.72;;;;;;;23.38;50.74;96279.31;5036700;28;20025;-33
2023/06/02 09:42:12;;;;;;;5.72;3.80;;;;;;;23.30;51.02;96284.66;5037130;28;20022;-33
2023/06/02 09:44:38;;;;;;;4.75;3.72;;;;;;;23.34;50.53;96285.16;5036960;28;20112;-34
2023/06/02 09:47:24;;;;;;;7.20;3.78;;;;;;;23.39;50.66;96278.81;5036721;28;20030;-34
2023/06/02 09:49:49;;;;;;;4.78;3.83;;;;;;;23.24;51.10;96284.69;5044726;28;20025;-34
2023/06/02 09:52:16;;;;;;;8.95;3.90;;;;;;;23.41;51.03;96270.75;5043995;28;20022;-33
2023/06/02 09:54:46;;;;;;;6.35;4.65;;;;;;;23.27;51.03;96269.84;5036290;28;20049;-33
2023/06/02 09:57:13;;;;;;;8.50;4.95;;;;;;;23.33;50.67;96266.28;5050987;28;20396;-33
2023/06/02 09:59:41;;;;;;;5.07;4.35;;;;;;;23.30;51.17;96273.59;5036146;28;20128;-33
2023/06/02 10:02:11;;;;;;;5.80;4.32;;;;;;;23.32;50.69;96279.38;5035988;28;20031;-33
2023/06/02 10:04:37;;;;;;;5.22;4.10;;;;;;;23.29;50.56;96272.84;5041577;28;20023;-33
2023/06/02 10:07:36;;;;;;;5.72;4.18;;;;;;;23.43;50.32;96281.31;5037685;28;20051;-33
2023/06/02 10:10:02;;;;;;;6.18;3.65;;;;;;;23.26;50.28;96273.88;5038598;28;20017;-34
2023/06/02 10:12:30;;;;;;;7.47;3.55;;;;;;;23.32;49.42;96270.31;5043323;28;20036;-33
2023/06/02 10:15:14;;;;;;;5.90;3.85;;;;;;;23.26;50.15;96273.88;5036498;28;20100;-34
2023/06/02 10:17:50;;;;;;;7.00;3.75;;;;;;;23.48;49.73;96277.75;5029497;28;20024;-33
2023/06/02 10:20:18;;;;;;;7.80;3.80;;;;;;;23.53;49.43;96269.41;5036312;28;20013;-33
2023/06/02 10:23:24;;;;;;;5.22;3.80;;;;;;;23.43;49.96;96270.22;5040947;28;20118;-33
2023/06/02 10:26:17;;;;;;;15.48;4.72;;;;;;;23.38;50.12;96273.78;5029792;28;20018;-34
2023/06/02 10:28:42;;;;;;;4.65;3.35;;;;;;;23.34;50.17;96281.63;5042434;28;20480;-33
2023/06/02 10:31:11;;;;;;;8.00;3.92;;;;;;;23.33;49.96;96272.59;5036196;28;20029;-33
2023/06/02 10:33:58;;;;;;;5.55;3.72;;;;;;;23.42;50.18;96274.25;5036110;28;20404;-33
2023/06/02 10:36:24;;;;;;;6.13;3.42;;;;;;;23.54;50.60;96278.47;5035830;28;20108;-34
2023/06/02 10:38:50;;;;;;;5.07;3.75;;;;;;;23.46;51.17;96272.72;5043860;28;20021;-34
2023/06/02 10:41:21;;;;;;;7.38;3.67;;;;;;;23.53;52.52;96269.41;5042694;28;20500;-33
2023/06/02 10:44:25;;;;;;;5.88;3.67;;;;;;;23.46;53.55;96269.22;5036348;28;20057;-33
2023/06/02 10:47:17;;;;;;;5.88;4.55;;;;;;;23.49;53.71;96265.41;5035861;28;20366;-33
2023/06/02 10:49:59;;;;;;;4.22;3.28;;;;;;;23.50;52.58;96270.44;5031305;28;20042;-33
2023/06/02 10:52:25;;;;;;;5.18;2.90;;;;;;;23.50;51.63;96269.66;5030333;28;20028;-33
2023/06/02 10:55:11;;;;;;;5.50;3.42;;;;;;;23.46;50.92;96263.69;5042682;28;20038;-33
2023/06/02 10:57:54;;;;;;;5.20;2.95;;;;;;;23.46;50.37;96258.13;5034579;28;20042;-33
2023/06/02 11:00:32;;;;;;;4.43;3.25;;;;;;;23.48;49.71;96256.38;5028714;28;20476;-33
2023/06/02 11:03:20;;;;;;;4.00;3.00;;;;;;;23.46;49.50;96253.34;5042212;28;20017;-34
2023/06/02 11:05:47;;;;;;;3.67;2.95;;;;;;;23.61;49.23;96256.50;5033748;28;20033;-34
2023/06/02 11:10:51;;;;;;;3.20;2.40;;;;;;;23.55;48.25;96257.84;5042575;28;20477;-34
2023/06/02 11:13:18;;;;;;;2.50;2.30;;;;;;;23.51;48.49;96251.81;5042439;28;20013;-33
2023/06/02 11:15:58;;;;;;;3.03;2.17;;;;;;;23.55;48.07;96250.28;5034979;28;20025;-34
2023/06/02 11:18:32;;;;;;;5.00;2.30;;;;;;;23.62;48.09;96248.94;5034789;28;20104;-33
2023/06/02 11:20:59;;;;;;;3.50;2.50;;;;;;;23.59;47.94;96252.78;5042174;28;20482;-33
2023/06/02 11:23:25;;;;;;;4.93;2.42;;;;;;;23.59;47.92;96255.53;5035288;28;20026;-33
2023/06/02 11:26:12;;;;;;;3.03;2.60;;;;;;;23.62;47.88;96255.22;5039119;28;20048;-33
2023/06/02 11:28:38;;;;;;;3.10;2.30;;;;;;;23.56;47.56;96251.03;5037008;28;20021;-34
2023/06/02 11:31:14;;;;;;;2.75;2.20;;;;;;;23.62;46.67;96243.41;5040293;28;20028;-33
2023/06/02 11:33:41;;;;;;;3.13;2.30;;;;;;;23.63;46.46;96234.59;5035300;28;20018;-33
2023/06/02 11:36:11;;;;;;;3.38;2.60;;;;;;;23.78;46.24;96234.19;5034869;28;20029;-33
2023/06/02 11:38:38;;;;;;;4.95;3.45;;;;;;;23.67;46.16;96234.31;5042564;28;20024;-33
2023/06/02 11:41:18;;;;;;;2.55;2.20;;;;;;;23.62;45.89;96221.25;5034648;28;20512;-33